Tiempo atmosférico en la estación meteorológica de La Póveda de Soria, Barriomartín, Soria (1260 m.)



Fecha
DESCASC
Temp. máxima en grados centígrados (hora)
DESCASC
Temp. mínima en grados centígrados (hora)
DESCASC
Temp. media en grados centígrados
DESCASC
Racha de viento máxima en m/sg (hora)
DESCASC
Velocidad máxima media en intervalos de 10 minutos(hora)
DESCASC
Precipitaciones diarias en mm
DESCASC
Precipitaciones de 00:00 a 06:00 en mm
DESCASC
Precipitaciones de 06:00 a 12:00 en mm
DESCASC
Precipitaciones de 12:00 a 18:00 en mm
DESCASC
Precipitaciones de 18:00 a 24:00 en mm
DESCASC
23-06-2019 28.3 (17:30) 10.6 (07:00) 19.4 11.39 (15:10) 6.67 (14:00) 0 0 0 0 0
22-06-2019 26.2 (18:10) 5 (06:00) 15.6 8.89 (15:30) 5 (14:50) 0 0 0 0 0
21-06-2019 17 (16:10) 9.1 (07:10) 13.1 9.72 (18:10) 6.11 (19:30) 0.6 0.2 0 0.4 0
20-06-2019 19.3 (11:10) 10 (00:00) 14.6 8.61 (21:10) 5.28 (16:50) 7.8 0 0 6.6 1.2
19-06-2019 -- (--) -- (--) -- -- (--) -- (--) -- -- -- 0 0
18-06-2019 26.3 (16:00) 10.2 (00:00) 18.2 15 (15:10) 8.33 (14:20) 0 0 0 0 0
17-06-2019 27.2 (17:10) 7.6 (00:00) 17.4 9.44 (15:10) 5.28 (16:00) 0 0 0 0 0
16-06-2019 24.3 (18:40) 4.6 (00:00) 14.4 8.06 (16:30) 5.28 (15:40) 0 0 0 0 0
15-06-2019 20.3 (15:50) 5.5 (00:00) 12.9 6.67 (03:00) 4.17 (23:40) 0 0 0 0 0
14-06-2019 23.6 (17:40) 6.3 (00:00) 15 12.22 (16:20) 5.83 (15:30) 0 0 0 0 0
13-06-2019 22.3 (16:40) 3.7 (00:00) 13 13.33 (14:30) 7.5 (14:30) 0 0 0 0 0
12-06-2019 17.7 (18:30) -0.9 (-00:0) 8.4 10.56 (15:10) 5.28 (15:10) 0 0 0 0 0
11-06-2019 10.2 (17:40) 3.2 (00:00) 6.7 13.33 (13:30) 8.06 (13:40) 2 1 0.4 0.4 0.2
10-06-2019 14.4 (15:00) 6.2 (00:00) 10.3 10 (16:30) 6.67 (17:00) 0 0 0 0 0
09-06-2019 22.2 (18:00) 5.9 (00:00) 14.1 11.67 (20:40) 7.22 (20:40) 0 0 0 0 0
08-06-2019 -- (--) -- (--) -- -- (--) -- (--) -- 0 0 0 --
07-06-2019 15.8 (17:50) 3.7 (00:00) 9.8 14.72 (04:40) 7.5 (14:00) 2 2 0 0 0
06-06-2019 18.6 (17:30) 6 (00:00) 12.3 16.94 (20:50) 9.44 (20:20) 0 0 0 0 0
05-06-2019 12 (00:00) 4.9 (00:00) 8.5 12.5 (17:00) 6.94 (10:50) 9.2 4.2 3.6 1.4 0
04-06-2019 24.8 (14:50) 6.8 (00:00) 15.8 11.11 (14:00) 5.83 (16:10) 0 0 0 0 0
03-06-2019 27.6 (17:40) 10.6 (00:00) 19.1 13.33 (14:50) 6.39 (14:30) 0 0 0 0 0
02-06-2019 28.6 (15:20) 8 (00:00) 18.3 9.17 (16:20) 5.28 (16:20) 0 0 0 0 0
01-06-2019 26 (16:00) 6.7 (00:00) 16.3 6.94 (20:20) 3.61 (16:30) 0 0 0 0 0
31-05-2019 24.8 (14:50) 10.6 (00:00) 17.7 7.78 (00:20) 5.83 (00:20) 0 0 0 0 0
30-05-2019 21.7 (16:00) 6.6 (00:00) 14.2 10.83 (00:30) 7.5 (00:50) 0 0 0 0 0
29-05-2019 12.6 (18:00) 4.8 (00:00) 8.7 16.39 (11:30) 11.11 (11:30) 0 0 0 0 0
28-05-2019 11.2 (16:00) 4.5 (00:00) 7.8 17.78 (09:10) 12.22 (09:20) 0 0 0 0 0
27-05-2019 16.5 (15:00) 7.7 (00:00) 12.1 13.89 (16:20) 9.44 (16:30) 0 0 0 0 0
26-05-2019 12.7 (15:30) 4.7 (00:00) 8.7 16.67 (04:40) 9.72 (16:20) 0 0 0 0 0

Gráficas

Temp. máximas Temp. mínimas Temp. medias Precipitaciones Rachas de viento máximas Velocidades máximas media en intervalos de 10 minutos

Datos horarios

Fecha y hora oficial Temperatura (ºC) Velocidad del viento (km/h) Dirección del viento Racha (km/h) Dirección de racha Precipitación (mm) Presión (hPa) Tendencia (hPa) Humedad (%)
2019-06-24 23:00:00 17.3 6 Norte 10 Norte 0 -- -- 64
2019-06-24 22:00:00 19.4 0 Calma 6 Norte 0 -- -- 59
2019-06-24 21:00:00 21.9 0 Calma 7 Oeste 0 -- -- 51
2019-06-24 20:00:00 24.5 4 Sudoeste 20 Sudoeste 0 -- -- 42
2019-06-24 19:00:00 26.5 13 Sudoeste 28 Sudoeste 0 -- -- 36
2019-06-24 18:00:00 26.1 18 Sudoeste 32 Sur 0 -- -- 37
2019-06-24 17:00:00 26.6 14 Sudoeste 28 Sur 0 -- -- 38
2019-06-24 16:00:00 24.7 17 Sur 34 Sur 0 -- -- 38
2019-06-24 15:00:00 24.5 15 Sur 32 Sudoeste 0 -- -- 39
2019-06-24 14:00:00 24.5 18 Sur 29 Sudoeste 0 -- -- 38
2019-06-24 13:00:00 25.1 15 Sur 30 Sur 0 -- -- 38
2019-06-24 12:00:00 22.4 12 Sur 21 Sur 0 -- -- 40
2019-06-24 11:00:00 22.4 12 Sur 25 Sur 0 -- -- 40
2019-06-24 10:00:00 21.6 15 Sur 26 Sudoeste 0 -- -- 39
2019-06-24 09:00:00 18.2 3 Este 9 Norte 0 -- -- 54
2019-06-24 08:00:00 12.9 5 Norte 8 Norte 0 -- -- 72
2019-06-24 07:00:00 12.1 5 Norte 9 Norte 0 -- -- 72
2019-06-24 06:00:00 12.8 4 Norte 7 Norte 0 -- -- 75
2019-06-24 05:00:00 13.6 0 Calma 2 Noroeste 0 -- -- 73
2019-06-24 04:00:00 14.1 2 Norte 10 Norte 0 -- -- 68
2019-06-24 03:00:00 15.2 6 Norte 13 Norte 0 -- -- 62
2019-06-24 02:00:00 15.9 7 Norte 12 Norte 0 -- -- 58
2019-06-24 01:00:00 16.1 7 Norte 13 Norte 0 -- -- 57
2019-06-24 00:00:00 16.4 6 Norte 13 Noroeste 0 -- -- 56
2019-06-23 23:00:00 17.3 9 Noroeste 16 Norte 0 -- -- 52
2019-06-23 22:00:00 19.3 8 Norte 13 Oeste 0 -- -- 49
2019-06-23 21:00:00 23.2 3 Sudoeste 16 Sudoeste 0 -- -- 36
2019-06-23 20:00:00 25.2 8 Sudoeste 26 Sudoeste 0 -- -- 35
2019-06-23 19:00:00 26.7 17 Sudoeste 32 Sudoeste 0 -- -- 32
2019-06-23 18:00:00 26.9 17 Sur 33 Sur 0 -- -- 33
2019-06-23 17:00:00 27.7 21 Sur 40 Sur 0 -- -- 32
2019-06-23 16:00:00 26.4 19 Sur 41 Sur 0 -- -- 35
2019-06-23 15:00:00 26.4 19 Sur 36 Sudoeste 0 -- -- 38
2019-06-23 14:00:00 26.3 24 Sudoeste 40 Sur 0 -- -- 39
2019-06-23 13:00:00 24.9 16 Sur 32 Sur 0 -- -- 46
2019-06-23 12:00:00 22.5 13 Sur 25 Sudeste 0 -- -- 53
2019-06-23 11:00:00 20.7 14 Sur 23 Sudeste 0 -- -- 56
2019-06-23 10:00:00 16.1 2 Nordeste 4 Norte 0 -- -- 74
2019-06-23 09:00:00 14 0 Calma 4 Norte 0 -- -- 82
2019-06-23 08:00:00 12.4 3 Norte 7 Norte 0 -- -- 84
2019-06-23 07:00:00 10.6 5 Norte 10 Norte 0 -- -- 86
2019-06-23 06:00:00 11.3 3 Norte 10 Norte 0 -- -- 84
2019-06-23 05:00:00 11.5 4 Norte 10 Norte 0 -- -- 83
2019-06-23 04:00:00 11.9 7 Norte 12 Noroeste 0 -- -- 80
2019-06-23 03:00:00 11.8 8 Norte 15 Norte 0 -- -- 77
2019-06-23 02:00:00 11.8 9 Norte 13 Norte 0 -- -- 73
2019-06-23 01:00:00 11.9 8 Norte 12 Norte 0 -- -- 71
2019-06-23 00:00:00 13.2 4 Norte 13 Norte 0 -- -- 66
2019-06-22 23:00:00 14.8 9 Norte 13 Norte 0 -- -- 60
2019-06-22 22:00:00 18.6 0 Calma 12 Sudoeste 0 -- -- 53
2019-06-22 21:00:00 21.8 4 Sur 18 Sudoeste 0 -- -- 43
2019-06-22 20:00:00 23.3 7 Sur 20 Sur 0 -- -- 40
2019-06-22 19:00:00 25.4 11 Sur 23 Sudoeste 0 -- -- 41
2019-06-22 18:00:00 25.9 14 Sudoeste 28 Oeste 0 -- -- 39
2019-06-22 17:00:00 26.1 9 Sudoeste 26 Oeste 0 -- -- 37
2019-06-22 16:00:00 24.9 14 Sudoeste 32 Sudoeste 0 -- -- 35
2019-06-22 15:00:00 23.8 15 Sudoeste 32 Sudoeste 0 -- -- 43
2019-06-22 14:00:00 23.1 10 Sudoeste 30 Sudoeste 0 -- -- 46
2019-06-22 13:00:00 21.9 15 Sudoeste 32 Sudoeste 0 -- -- 48
2019-06-22 12:00:00 20 11 Sur 24 Sur 0 -- -- 59
2019-06-22 11:00:00 17.8 11 Sur 20 Sudeste 0 -- -- 65
2019-06-22 10:00:00 15.5 12 Sur 17 Sudeste 0 -- -- 66
2019-06-22 09:00:00 13.8 5 Sur 9 Sur 0 -- -- 68
2019-06-22 08:00:00 8.4 6 Norte 11 Norte 0 -- -- 86
2019-06-22 07:00:00 5.7 9 Norte 12 Norte 0 -- -- 93
2019-06-22 06:00:00 5 6 Norte 9 Norte 0 -- -- 92
2019-06-22 05:00:00 5.7 6 Norte 13 Norte 0 -- -- 88
2019-06-22 04:00:00 6.2 8 Norte 14 Norte 0 -- -- 86
2019-06-22 03:00:00 6.7 8 Norte 15 Norte 0 -- -- 85
2019-06-22 02:00:00 7.8 10 Norte 17 Noroeste 0 -- -- 86
2019-06-22 01:00:00 9.3 12 Noroeste 22 Norte 0 -- -- 85
2019-06-22 00:00:00 10.4 15 Norte 26 Norte 0 -- -- 83
2019-06-21 23:00:00 10.5 13 Norte 22 Norte 0 -- -- 83
2019-06-21 22:00:00 11.1 12 Norte 25 Norte 0 -- -- 82
2019-06-21 21:00:00 11.8 14 Norte 32 Norte 0 -- -- 77
2019-06-21 20:00:00 13.7 19 Norte 34 Noroeste 0 -- -- 70
2019-06-21 19:00:00 14.9 20 Norte 35 Norte 0 -- -- 68
2019-06-21 18:00:00 15.7 21 Norte 32 Noroeste 0 -- -- 66
2019-06-21 17:00:00 16.7 17 Norte 29 Norte 0.2 -- -- 64
2019-06-21 16:00:00 16.9 18 Norte 29 Norte 0 -- -- 61
2019-06-21 15:00:00 15.4 15 Norte 27 Norte 0.2 -- -- 70
2019-06-21 14:00:00 13.3 13 Norte 27 Norte 0 -- -- 78
2019-06-21 13:00:00 14.6 15 Norte 28 Norte 0 -- -- 71
2019-06-21 12:00:00 14.2 17 Norte 27 Norte 0 -- -- 76
2019-06-21 11:00:00 13.1 16 Norte 27 Norte 0 -- -- 79
2019-06-21 10:00:00 12.7 14 Norte 29 Norte 0 -- -- 78
2019-06-21 09:00:00 10.8 15 Norte 26 Norte 0 -- -- 88
2019-06-21 08:00:00 10.6 14 Norte 23 Norte 0 -- -- 88
2019-06-21 07:00:00 9.2 10 Norte 23 Norte 0 -- -- 92
2019-06-21 06:00:00 9.6 9 Norte 26 Norte 0 -- -- 92
2019-06-21 05:00:00 10.1 13 Norte 24 Noroeste 0 -- -- 91
2019-06-21 04:00:00 10.2 12 Norte 25 Norte 0 -- -- 91
2019-06-21 03:00:00 10.4 12 Norte 26 Norte 0.2 -- -- 91
2019-06-21 02:00:00 10.6 14 Norte 27 Norte 0 -- -- 91
2019-06-21 01:00:00 10.9 15 Norte 24 Norte 0 -- -- 89
2019-06-21 00:00:00 10.9 12 Norte 31 Noroeste 0.2 -- -- 87
2019-06-20 23:00:00 11.1 15 Norte 28 Norte 0 -- -- 88
2019-06-20 22:00:00 11.4 13 Norte 31 Noroeste 0.8 -- -- 89
2019-06-20 21:00:00 12.2 18 Norte 30 Noroeste 0.2 -- -- 88
2019-06-20 20:00:00 13 19 Norte 31 Norte 0 -- -- 86
2019-06-20 19:00:00 13.7 18 Norte 28 Norte 0 -- -- 86
2019-06-20 18:00:00 13.9 8 Norte 25 Norte 1.6 -- -- 88
2019-06-20 17:00:00 15.3 17 Norte 27 Noroeste 0 -- -- 80
2019-06-20 16:00:00 16.3 11 Norte 25 Norte 0 -- -- 79
2019-06-20 15:00:00 16.4 6 Norte 16 Nordeste 0.4 -- -- 77
2019-06-20 14:00:00 15.5 7 Nordeste 25 Este 4.6 -- -- 77
2019-06-20 13:00:00 17.8 8 Este 16 Este 0 -- -- 65
2019-06-20 12:00:00 18.8 6 Sudeste 17 Sudeste 0 -- -- 59
2019-06-20 11:00:00 19 9 Sudeste 17 Sudeste 0 -- -- 60
2019-06-20 10:00:00 17.1 6 Nordeste 17 Norte 0 -- -- 64
2019-06-20 09:00:00 14.1 12 Norte 20 Noroeste 0 -- -- 79
2019-06-20 08:00:00 12.9 11 Norte 21 Norte 0 -- -- 84
2019-06-20 07:00:00 12.1 14 Norte 23 Norte 0 -- -- 86
2019-06-20 06:00:00 10.2 5 Norte 11 Norte 0 -- -- 89
2019-06-20 05:00:00 10.3 7 Norte 16 Norte 0 -- -- 88
2019-06-20 04:00:00 10.6 7 Norte 14 Noroeste 0 -- -- 88
2019-06-20 03:00:00 11.3 8 Noroeste 13 Norte 0 -- -- 84
2019-06-20 02:00:00 12.6 6 Norte 11 Noroeste 0 -- -- 79
2019-06-20 01:00:00 14.6 3 Norte 17 Noroeste 0 -- -- 74
2019-06-20 00:00:00 15.1 6 Norte 9 Norte 0 -- -- 72
2019-06-19 23:00:00 16.1 0 Calma 8 Norte 0 -- -- 66
2019-06-19 22:00:00 16.5 4 Norte 15 Noroeste 0 -- -- 63
2019-06-19 21:00:00 18.2 4 Noroeste 7 Norte 0 -- -- 57
2019-06-19 20:00:00 21.3 2 Sudoeste 13 Oeste 0 -- -- 48
2019-06-19 19:00:00 21.3 4 Oeste 17 Oeste 0 -- -- 45
2019-06-19 18:00:00 23.8 9 Sudoeste 24 Sur 0 -- -- 40
2019-06-19 17:00:00 23.6 10 Oeste 30 Oeste 0 -- -- 41
2019-06-19 16:00:00 22.4 12 Sudoeste 30 Sudoeste 0 -- -- 43
2019-06-19 15:00:00 20.5 6 Oeste 29 Sudoeste 0 -- -- 48
2019-06-19 14:00:00 20.6 7 Sudoeste 27 Oeste 0 -- -- 50
2019-06-19 13:00:00 20 9 Sudoeste 26 Sudoeste 0 -- -- 51
2019-06-19 12:00:00 18.8 5 Oeste 29 Oeste 0 -- -- 55
2019-06-19 11:00:00 18.1 14 Oeste 28 Oeste 0 -- -- 51
2019-06-19 10:00:00 18.9 10 Sudoeste 24 Sudoeste 0 -- -- 56
2019-06-19 09:00:00 16.5 7 Sur 10 Sur 0 -- -- 67
2019-06-19 08:00:00 11.9 0 Calma 5 Norte 0 -- -- 81
2019-06-19 07:00:00 -- -- -- -- -- -- -- -- --
2019-06-19 06:00:00 -- -- -- -- -- -- -- -- --
2019-06-19 05:00:00 -- -- -- -- -- -- -- -- --
2019-06-19 04:00:00 8.8 6 Norte 12 Norte 0 -- -- 83
2019-06-19 03:00:00 9.4 6 Norte 10 Norte 0 -- -- 79
2019-06-19 02:00:00 11.5 3 Norte 13 Oeste 0 -- -- 68
2019-06-19 01:00:00 13.5 -- -- -- -- -- -- -- --
2019-06-19 00:00:00 14.4 2 Noroeste 13 Noroeste 0 -- -- 56
2019-06-18 23:00:00 13.8 6 Oeste 13 Oeste 0 -- -- 50
2019-06-18 22:00:00 16.5 4 Norte 21 Sudoeste 0 -- -- 34
2019-06-18 21:00:00 21.5 13 Sudoeste 30 Sudoeste 0 -- -- 22
2019-06-18 20:00:00 24 14 Sudoeste 39 Sur 0 -- -- 21
2019-06-18 19:00:00 25.3 20 Sur 42 Sur 0 -- -- 22
2019-06-18 18:00:00 26 20 Sur 48 Sudoeste 0 -- -- 20
2019-06-18 17:00:00 26.1 24 Sudoeste 49 Sudoeste 0 -- -- 23
2019-06-18 16:00:00 26.3 19 Sur 54 Sur 0 -- -- 23
2019-06-18 15:00:00 25.7 22 Sudoeste 50 Sur 0 -- -- 26
2019-06-18 14:00:00 25.4 20 Sudoeste 51 Sur 0 -- -- 29
2019-06-18 13:00:00 24.6 24 Sur 44 Sur 0 -- -- 28
2019-06-18 12:00:00 24.1 20 Sudoeste 39 Sudoeste 0 -- -- 32
2019-06-18 11:00:00 22 17 Sur 34 Sur 0 -- -- 35
2019-06-18 10:00:00 20.3 9 Sur 17 Sur 0 -- -- 40
2019-06-18 09:00:00 17.6 4 Sudeste 9 Sudeste 0 -- -- 42
2019-06-18 08:00:00 11.7 5 Norte 13 Norte 0 -- -- 63
2019-06-18 07:00:00 10.3 8 Norte 12 Norte 0 -- -- 65
2019-06-18 06:00:00 11.6 5 Norte 13 Noroeste 0 -- -- 59
2019-06-18 05:00:00 13.1 8 Norte 13 Norte 0 -- -- 55
2019-06-18 04:00:00 14.9 7 Noroeste 24 Sur 0 -- -- 47
2019-06-18 03:00:00 13.6 5 Norte 10 Norte 0 -- -- 55
2019-06-18 02:00:00 14.1 6 Noroeste 12 Noroeste 0 -- -- 51
2019-06-18 01:00:00 13.3 6 Norte 12 Norte 0 -- -- 52
2019-06-18 00:00:00 14.4 7 Norte 11 Norte 0 -- -- 49
2019-06-17 23:00:00 15.7 7 Norte 15 Norte 0 -- -- 48
2019-06-17 22:00:00 17.6 8 Norte 11 Norte 0 -- -- 44
2019-06-17 21:00:00 20.4 3 Norte 7 Sur 0 -- -- 42
2019-06-17 20:00:00 23.4 4 Sudoeste 12 Sudoeste 0 -- -- 32
2019-06-17 19:00:00 24.6 12 Sudoeste 22 Sur 0 -- -- 26
2019-06-17 18:00:00 25.5 15 Sur 30 Sudoeste 0 -- -- 22
2019-06-17 17:00:00 27 14 Sudoeste 28 Sudoeste 0 -- -- 24
2019-06-17 16:00:00 26.1 19 Sudoeste 34 Oeste 0 -- -- 27
2019-06-17 15:00:00 25.5 7 Sur 31 Sudoeste 0 -- -- 25
2019-06-17 14:00:00 24.8 12 Sur 28 Sur 0 -- -- 25
2019-06-17 13:00:00 24.4 8 Sudoeste 30 Sudoeste 0 -- -- 32
2019-06-17 12:00:00 23 14 Sudeste 25 Sudeste 0 -- -- 35
2019-06-17 11:00:00 21.2 8 Sudeste 15 Sudeste 0 -- -- 41
2019-06-17 10:00:00 19.8 5 Sudeste 9 Sudeste 0 -- -- 43
2019-06-17 09:00:00 16.8 2 Sudeste 7 Nordeste 0 -- -- 52
2019-06-17 08:00:00 10.8 5 Norte 14 Norte 0 -- -- 67
2019-06-17 07:00:00 7.6 10 Norte 14 Norte 0 -- -- 76
2019-06-17 06:00:00 8 10 Norte 13 Norte 0 -- -- 79
2019-06-17 05:00:00 8.5 8 Norte 13 Norte 0 -- -- 78
2019-06-17 04:00:00 8.9 8 Norte 11 Norte 0 -- -- 76
2019-06-17 03:00:00 10 8 Norte 11 Norte 0 -- -- 72
2019-06-17 02:00:00 10.1 8 Norte 12 Norte 0 -- -- 71
2019-06-17 01:00:00 10.9 8 Norte 11 Norte 0 -- -- 69
2019-06-17 00:00:00 12.4 8 Norte 10 Norte 0 -- -- 65
2019-06-16 23:00:00 13.6 5 Norte 12 Noroeste 0 -- -- 62
2019-06-16 22:00:00 16.7 0 Calma 13 Norte 0 -- -- 53
2019-06-16 21:00:00 20.4 5 Oeste 10 Sur 0 -- -- 44
2019-06-16 20:00:00 22.8 4 Sudoeste 18 Sur 0 -- -- 33
2019-06-16 19:00:00 23.3 8 Sur 27 Sur 0 -- -- 26
2019-06-16 18:00:00 24.1 12 Sudoeste 28 Sur 0 -- -- 26
2019-06-16 17:00:00 24.1 12 Sur 29 Sudeste 0 -- -- 27
2019-06-16 16:00:00 24 8 Sudoeste 28 Sudeste 0 -- -- 31
2019-06-16 15:00:00 22.5 13 Sur 27 Sudeste 0 -- -- 31
2019-06-16 14:00:00 21 9 Sur 23 Sudoeste 0 -- -- 34
2019-06-16 13:00:00 19.9 12 Sur 24 Sur 0 -- -- 40
2019-06-16 12:00:00 19.1 10 Sur 19 Sur 0 -- -- 46
2019-06-16 11:00:00 17.5 8 Sur 22 Sudoeste 0 -- -- 49
2019-06-16 10:00:00 16.2 9 Sudeste 17 Sur 0 -- -- 52
2019-06-16 09:00:00 13.6 3 Norte 8 Norte 0 -- -- 62
2019-06-16 08:00:00 8.4 6 Norte 10 Norte 0 -- -- 82
2019-06-16 07:00:00 4.9 5 Norte 11 Norte 0 -- -- 91
2019-06-16 06:00:00 4.9 7 Norte 10 Norte 0 -- -- 91
2019-06-16 05:00:00 5.2 5 Norte 14 Norte 0 -- -- 90
2019-06-16 04:00:00 5.4 6 Norte 12 Norte 0 -- -- 90
2019-06-16 03:00:00 5.7 10 Norte 13 Norte 0 -- -- 88
2019-06-16 02:00:00 6.6 8 Norte 12 Norte 0 -- -- 84
2019-06-16 01:00:00 8.5 4 Nordeste 19 Norte 0 -- -- 77
2019-06-16 00:00:00 9.3 14 Norte 24 Norte 0 -- -- 75
2019-06-15 23:00:00 10.1 9 Norte 20 Noroeste 0 -- -- 72
2019-06-15 22:00:00 11.3 5 Noroeste 24 Nordeste 0 -- -- 68
2019-06-15 21:00:00 13.9 9 Nordeste 23 Nordeste 0 -- -- 59
2019-06-15 20:00:00 16.7 10 Norte 24 Nordeste 0 -- -- 49
2019-06-15 19:00:00 17.3 10 Norte 21 Noroeste 0 -- -- 50
2019-06-15 18:00:00 19.7 9 Norte 19 Nordeste 0 -- -- 46
2019-06-15 17:00:00 17.9 6 Nordeste 14 Este 0 -- -- 43
2019-06-15 16:00:00 19.7 6 Norte 15 Sudoeste 0 -- -- 40
2019-06-15 15:00:00 18.6 6 Sur 15 Sur 0 -- -- 45
2019-06-15 14:00:00 17.3 6 Noroeste 14 Norte 0 -- -- 50
2019-06-15 13:00:00 17.2 4 Noroeste 14 Sudoeste 0 -- -- 48
2019-06-15 12:00:00 14.5 5 Nordeste 19 Sur 0 -- -- 55
2019-06-15 11:00:00 13.4 10 Sudeste 22 Sudeste 0 -- -- 55
2019-06-15 10:00:00 13 9 Sur 15 Sur 0 -- -- 63
2019-06-15 09:00:00 11.3 4 Sudeste 8 Sudeste 0 -- -- 72
2019-06-15 08:00:00 8.6 2 Nordeste 4 Noroeste 0 -- -- 83
2019-06-15 07:00:00 5.9 0 Calma 12 Noroeste 0 -- -- 88
2019-06-15 06:00:00 6.7 8 Noroeste 14 Norte 0 -- -- 88
2019-06-15 05:00:00 7.2 6 Norte 15 Norte 0 -- -- 86
2019-06-15 04:00:00 8.1 4 Norte 24 Norte 0 -- -- 84
2019-06-15 03:00:00 8.2 9 Norte 24 Nordeste 0 -- -- 85
2019-06-15 02:00:00 8.4 0 Calma 20 Norte 0 -- -- 83
2019-06-15 01:00:00 9.7 11 Norte 21 Noroeste 0 -- -- 81
2019-06-15 00:00:00 10.6 3 Norte 10 Norte 0 -- -- 82
2019-06-14 23:00:00 12.7 5 Noroeste 17 Norte 0 -- -- 77
2019-06-14 22:00:00 14.2 11 Norte 17 Norte 0 -- -- 71
2019-06-14 21:00:00 17.5 3 Este 19 Este 0 -- -- 55
2019-06-14 20:00:00 18.4 12 Norte 18 Norte 0 -- -- 53
2019-06-14 19:00:00 18.7 8 Norte 26 Oeste 0 -- -- 52
2019-06-14 18:00:00 23.3 13 Oeste 35 Sur 0 -- -- 29
2019-06-14 17:00:00 22.7 13 Sur 44 Sur 0 -- -- 31
2019-06-14 16:00:00 22.4 17 Sur 37 Sur 0 -- -- 33
2019-06-14 15:00:00 21.3 11 Sur 29 Sur 0 -- -- 39
2019-06-14 14:00:00 21.8 15 Sur 33 Sudoeste 0 -- -- 42
2019-06-14 13:00:00 20.3 9 Sur 20 Sudoeste 0 -- -- 47
2019-06-14 12:00:00 19.3 13 Sur 24 Sudoeste 0 -- -- 44
2019-06-14 11:00:00 17.7 11 Sudeste 19 Sudeste 0 -- -- 58
2019-06-14 10:00:00 17.2 6 Sur 13 Sudeste 0 -- -- 60
2019-06-14 09:00:00 14.9 3 Sudeste 13 Norte 0 -- -- 68
2019-06-14 08:00:00 9.2 7 Norte 13 Norte 0 -- -- 86
2019-06-14 07:00:00 6.4 7 Norte 11 Norte 0 -- -- 91
2019-06-14 06:00:00 7.1 6 Norte 12 Norte 0 -- -- 90
2019-06-14 05:00:00 8.2 7 Norte 13 Norte 0 -- -- 88
2019-06-14 04:00:00 9.9 8 Norte 18 Noroeste 0 -- -- 86
2019-06-14 03:00:00 10.7 10 Norte 21 Noroeste 0 -- -- 84
2019-06-14 02:00:00 10.2 6 Norte 13 Norte 0 -- -- 86
2019-06-14 01:00:00 9 4 Norte 13 Norte 0 -- -- 74
2019-06-14 00:00:00 8.8 8 Norte 14 Norte 0 -- -- 65
2019-06-13 23:00:00 10.2 9 Norte 15 Norte 0 -- -- 62
2019-06-13 22:00:00 12.9 10 Norte 14 Norte 0 -- -- 56
2019-06-13 21:00:00 17.9 5 Sudoeste 22 Sudoeste 0 -- -- 45
2019-06-13 20:00:00 20.4 17 Sur 33 Sudoeste 0 -- -- 34
2019-06-13 19:00:00 20.2 16 Sudoeste 34 Sudoeste 0 -- -- 37
2019-06-13 18:00:00 20.7 20 Sudoeste 36 Sudoeste 0 -- -- 40
2019-06-13 17:00:00 21.4 18 Sur 37 Sur 0 -- -- 37
2019-06-13 16:00:00 21.5 17 Sudoeste 41 Sur 0 -- -- 40
2019-06-13 15:00:00 21.3 24 Sudoeste 48 Sudoeste 0 -- -- 40
2019-06-13 14:00:00 20.3 21 Sudoeste 46 Sudoeste 0 -- -- 44
2019-06-13 13:00:00 18 24 Sur 39 Sur 0 -- -- 53
2019-06-13 12:00:00 14.9 13 Sur 31 Sur 0 -- -- 66
2019-06-13 11:00:00 12.4 8 Sur 15 Sur 0 -- -- 79
2019-06-13 10:00:00 9.4 6 Sur 11 Sur 0 -- -- 80
2019-06-13 09:00:00 8.5 5 Sur 10 Sudoeste 0 -- -- 81
2019-06-13 08:00:00 8 5 Sudoeste 10 Sudoeste 0 -- -- 84
2019-06-13 07:00:00 7 0 Calma 5 Norte 0 -- -- 87
2019-06-13 06:00:00 6.2 3 Norte 9 Norte 0 -- -- 88
2019-06-13 05:00:00 3.8 5 Norte 11 Norte 0 -- -- 88
2019-06-13 04:00:00 3.7 9 Norte 14 Norte 0 -- -- 86
2019-06-13 03:00:00 4.3 7 Norte 12 Norte 0 -- -- 83
2019-06-13 02:00:00 5 5 Norte 13 Norte 0 -- -- 80
2019-06-13 01:00:00 5.6 9 Norte 13 Norte 0 -- -- 79
2019-06-13 00:00:00 7.3 7 Norte 12 Norte 0 -- -- 72
2019-06-12 23:00:00 9.7 6 Norte 15 Noroeste 0 -- -- 64
2019-06-12 22:00:00 11 6 Norte 12 Noroeste 0 -- -- 63
2019-06-12 21:00:00 14.4 2 Sur 9 Sur 0 -- -- 49
2019-06-12 20:00:00 15.6 6 Sur 18 Sudoeste 0 -- -- 40
2019-06-12 19:00:00 17.1 10 Sur 28 Sudoeste 0 -- -- 36
2019-06-12 18:00:00 17.2 12 Sur 24 Sur 0 -- -- 40
2019-06-12 17:00:00 16.3 8 Sudoeste 33 Sudoeste 0 -- -- 39
2019-06-12 16:00:00 16.8 14 Sudoeste 38 Sudoeste 0 -- -- 35
2019-06-12 15:00:00 16.3 14 Sudoeste 37 Sudoeste 0 -- -- 37
2019-06-12 14:00:00 14.6 17 Sudoeste 36 Sudoeste 0 -- -- 40
2019-06-12 13:00:00 13.5 12 Oeste 32 Sudoeste 0 -- -- 47
2019-06-12 12:00:00 12.5 15 Oeste 28 Oeste 0 -- -- 53
2019-06-12 11:00:00 11.6 12 Sudoeste 31 Sudeste 0 -- -- 59
2019-06-12 10:00:00 10.1 14 Sur 24 Sudoeste 0 -- -- 66
2019-06-12 09:00:00 7.5 5 Sudeste 9 Sudeste 0 -- -- 73
2019-06-12 08:00:00 3.2 3 Norte 8 Norte 0 -- -- 94
2019-06-12 07:00:00 -0.3 3 Noroeste 8 Norte 0 -- -- 94
2019-06-12 06:00:00 -0.5 6 Norte 9 Norte 0 -- -- 94
2019-06-12 05:00:00 -0.7 3 Norte 8 Norte 0 -- -- 93
2019-06-12 04:00:00 0.3 6 Norte 10 Norte 0 -- -- 91
2019-06-12 03:00:00 2.2 9 Norte 15 Norte 0 -- -- 89
2019-06-12 02:00:00 2.4 9 Noroeste 14 Noroeste 0 -- -- 89
2019-06-12 01:00:00 3.7 2 Oeste 29 Norte 0 -- -- 82
2019-06-12 00:00:00 3.9 7 Noroeste 19 Norte 0 -- -- 86
2019-06-11 23:00:00 4 8 Noroeste 25 Norte 0 -- -- 86
2019-06-11 22:00:00 5.1 12 Norte 23 Norte 0 -- -- 83
2019-06-11 21:00:00 5.7 6 Nordeste 33 Norte 0 -- -- 82
2019-06-11 20:00:00 6.6 21 Norte 36 Norte 0 -- -- 79
2019-06-11 19:00:00 7 15 Norte 33 Norte 0.2 -- -- 82
2019-06-11 18:00:00 8.9 13 Norte 37 Norte 0 -- -- 65
2019-06-11 17:00:00 8.9 21 Norte 40 Norte 0 -- -- 62
2019-06-11 16:00:00 9.3 21 Norte 37 Norte 0.2 -- -- 60
2019-06-11 15:00:00 8.5 16 Nordeste 39 Noroeste 0 -- -- 69
2019-06-11 14:00:00 7.9 24 Norte 48 Norte 0 -- -- 79
2019-06-11 13:00:00 7.1 25 Noroeste 40 Norte 0.2 -- -- 85
2019-06-11 12:00:00 7.7 23 Norte 40 Norte 0 -- -- 82
2019-06-11 11:00:00 7.7 19 Norte 36 Norte 0 -- -- 80
2019-06-11 10:00:00 6 17 Norte 35 Norte 0 -- -- 86
2019-06-11 09:00:00 4.9 20 Norte 31 Noroeste 0 -- -- 91
2019-06-11 08:00:00 3.9 16 Norte 25 Noroeste 0 -- -- 91
2019-06-11 07:00:00 3.2 12 Norte 21 Norte 0.4 -- -- 91
2019-06-11 06:00:00 3.6 11 Norte 22 Norte 0.4 -- -- 90
2019-06-11 05:00:00 3.8 15 Norte 29 Norte 0.6 -- -- 89
2019-06-11 04:00:00 4.4 18 Norte 28 Norte 0 -- -- 89
2019-06-11 03:00:00 5 17 Norte 26 Norte 0 -- -- 89
2019-06-11 02:00:00 5.5 15 Norte 27 Norte 0 -- -- 90
2019-06-11 01:00:00 6.1 14 Norte 31 Norte 0 -- -- 86
2019-06-11 00:00:00 6.8 12 Norte 24 Norte 0 -- -- 82
2019-06-10 23:00:00 7.4 9 Noroeste 32 Norte 0 -- -- 81
2019-06-10 22:00:00 8.2 17 Norte 30 Norte 0 -- -- 75
2019-06-10 21:00:00 9.1 13 Norte 30 Norte 0 -- -- 70
2019-06-10 20:00:00 10 19 Norte 34 Norte 0 -- -- 68
2019-06-10 19:00:00 11.2 18 Norte 33 Norte 0 -- -- 69
2019-06-10 18:00:00 12.1 17 Norte 34 Norte 0 -- -- 67
2019-06-10 17:00:00 12.6 24 Norte 36 Norte 0 -- -- 66
2019-06-10 16:00:00 13.2 21 Norte 33 Noroeste 0 -- -- 69
2019-06-10 15:00:00 14.4 17 Norte 27 Norte 0 -- -- 65
2019-06-10 14:00:00 13.7 15 Norte 23 Norte 0 -- -- 65
2019-06-10 13:00:00 12.7 13 Norte 28 Norte 0 -- -- 67
2019-06-10 12:00:00 10.6 21 Norte 35 Norte 0 -- -- 75
2019-06-10 11:00:00 9.8 18 Norte 30 Norte 0 -- -- 79
2019-06-10 10:00:00 8.7 18 Norte 31 Norte 0 -- -- 81
2019-06-10 09:00:00 7.3 21 Norte 32 Norte 0 -- -- 84
2019-06-10 08:00:00 7.3 15 Norte 26 Norte 0 -- -- 86
2019-06-10 07:00:00 6.2 13 Norte 29 Norte 0 -- -- 93
2019-06-10 06:00:00 6.2 19 Norte 33 Norte 0 -- -- 93
2019-06-10 05:00:00 6.6 21 Norte 31 Norte 0 -- -- 90
2019-06-10 04:00:00 6.6 17 Norte 33 Norte 0 -- -- 92
2019-06-10 03:00:00 7.1 15 Norte 27 Norte 0 -- -- 91
2019-06-10 02:00:00 7.2 16 Norte 32 Norte 0 -- -- 91
2019-06-10 01:00:00 7.4 19 Norte 35 Norte 0 -- -- 94
2019-06-10 00:00:00 8 24 Norte 36 Norte 0 -- -- 94
2019-06-09 23:00:00 9.2 21 Norte 36 Norte 0 -- -- 90
2019-06-09 22:00:00 9.7 20 Norte 38 Noroeste 0 -- -- 88
2019-06-09 21:00:00 11.1 25 Norte 42 Norte 0 -- -- 82
2019-06-09 20:00:00 14.7 19 Norte 32 Norte 0 -- -- 70
2019-06-09 19:00:00 19 14 Norte 25 Norte 0 -- -- 54
2019-06-09 18:00:00 22.2 6 Oeste 27 Oeste 0 -- -- 34
2019-06-09 17:00:00 21.5 10 Oeste 28 Oeste 0 -- -- 34
2019-06-09 16:00:00 21.3 17 Sudoeste 32 Sudoeste 0 -- -- 35
2019-06-09 15:00:00 21.6 8 Sudoeste 30 Sudoeste 0 -- -- 36
2019-06-09 14:00:00 20.6 19 Sur 31 Sudoeste 0 -- -- 35
2019-06-09 13:00:00 20.2 14 Sudoeste 33 Sur 0 -- -- 43
2019-06-09 12:00:00 19 9 Oeste 28 Sudeste 0 -- -- 48
2019-06-09 11:00:00 17.2 7 Sur 15 Sudeste 0 -- -- 59
2019-06-09 10:00:00 15 6 Sudeste 10 Sudeste 0 -- -- 69
2019-06-09 09:00:00 11.3 4 Norte 6 Norte 0 -- -- 88
2019-06-09 08:00:00 8.9 5 Norte 10 Norte 0 -- -- 92
2019-06-09 07:00:00 6 8 Norte 11 Norte 0 -- -- 94
2019-06-09 06:00:00 6.3 7 Norte 12 Nordeste 0 -- -- 94
2019-06-09 05:00:00 6.8 8 Norte 11 Norte 0 -- -- 94
2019-06-09 04:00:00 7.5 9 Norte 12 Norte 0 -- -- 92
2019-06-09 03:00:00 8 6 Norte 12 Norte 0 -- -- 92
2019-06-09 02:00:00 9.1 6 Norte 13 Norte 0 -- -- 90
2019-06-09 01:00:00 10.4 8 Norte 12 Norte 0 -- -- 90
2019-06-09 00:00:00 11 8 Norte 11 Norte 0.2 -- -- 87
2019-06-08 23:00:00 13.1 3 Noroeste 16 Este 0.4 -- -- 79
2019-06-08 22:00:00 -- -- -- -- -- -- -- -- --
2019-06-08 21:00:00 17.3 0 Calma 19 Sudeste 0 -- -- 54
2019-06-08 20:00:00 17.8 14 Sudeste 28 Sudeste 0 -- -- 51
2019-06-08 19:00:00 18 11 Sur 24 Sudeste 0 -- -- 50
2019-06-08 18:00:00 18.5 14 Sudeste 27 Sudeste 0 -- -- 45
2019-06-08 17:00:00 18.7 14 Sur 32 Sur 0 -- -- 44
2019-06-08 16:00:00 20 14 Sur 30 Sur 0 -- -- 41
2019-06-08 15:00:00 18.9 12 Sur 29 Sudoeste 0 -- -- 43
2019-06-08 14:00:00 18.2 15 Sur 29 Sudoeste 0 -- -- 44
2019-06-08 13:00:00 17.4 14 Sur 33 Sudeste 0 -- -- 45
2019-06-08 12:00:00 16 13 Sur 28 Sudeste 0 -- -- 47
2019-06-08 11:00:00 14.4 15 Sur 27 Sur 0 -- -- 49
2019-06-08 10:00:00 13.9 9 Sur 23 Sur 0 -- -- 48
2019-06-08 09:00:00 10.8 2 Norte 9 Norte 0 -- -- 58
2019-06-08 08:00:00 5.5 6 Norte 10 Norte 0 -- -- 78
2019-06-08 07:00:00 1.4 7 Norte 15 Norte 0 -- -- 87
2019-06-08 06:00:00 1.2 6 Norte 12 Norte 0 -- -- 85
2019-06-08 05:00:00 1.3 6 Norte 12 Noroeste 0 -- -- 83
2019-06-08 04:00:00 1.9 6 Norte 14 Norte 0 -- -- 81
2019-06-08 03:00:00 2.2 9 Norte 13 Norte 0 -- -- 80
2019-06-08 02:00:00 2.6 8 Noroeste 15 Norte 0 -- -- 78
2019-06-08 01:00:00 3.1 11 Norte 15 Norte 0 -- -- 78
2019-06-08 00:00:00 4.1 8 Norte 14 Norte 0 -- -- 73
2019-06-07 23:00:00 4.6 7 Norte 10 Norte 0 -- -- 73
2019-06-07 22:00:00 7.2 6 Norte 12 Norte 0 -- -- 63
2019-06-07 21:00:00 11.2 6 Oeste 17 Oeste 0 -- -- 51
2019-06-07 20:00:00 13.4 10 Oeste 27 Sudoeste 0 -- -- 41
2019-06-07 19:00:00 15.1 9 Sudoeste 30 Sudoeste 0 -- -- 36
2019-06-07 18:00:00 15.4 17 Sudoeste 31 Oeste 0 -- -- 38
2019-06-07 17:00:00 15.1 14 Oeste 30 Sudoeste 0 -- -- 39
2019-06-07 16:00:00 13.9 17 Oeste 40 Sudoeste 0 -- -- 45
2019-06-07 15:00:00 13.9 17 Oeste 37 Oeste 0 -- -- 49
2019-06-07 14:00:00 12.3 27 Oeste 45 Oeste 0 -- -- 51
2019-06-07 13:00:00 11.5 22 Oeste 42 Oeste 0 -- -- 55
2019-06-07 12:00:00 11 19 Sudoeste 41 Sudoeste 0 -- -- 54
2019-06-07 11:00:00 10.5 19 Oeste 41 Oeste 0 -- -- 54
2019-06-07 10:00:00 7.9 23 Oeste 48 Oeste 0 -- -- 66
2019-06-07 09:00:00 7.3 17 Oeste 39 Noroeste 0 -- -- 69
2019-06-07 08:00:00 4.4 19 Oeste 39 Oeste 0 -- -- 77
2019-06-07 07:00:00 3.9 18 Oeste 38 Oeste 0 -- -- 79
2019-06-07 06:00:00 4.4 16 Oeste 43 Oeste 0.2 -- -- 83
2019-06-07 05:00:00 5.1 20 Oeste 53 Oeste 1.2 -- -- 84
2019-06-07 04:00:00 7.3 13 Oeste 32 Oeste 0.2 -- -- 79
2019-06-07 03:00:00 9.5 15 Oeste 31 Oeste 0.2 -- -- 79
2019-06-07 02:00:00 11.4 18 Sudoeste 50 Sudoeste 0.2 -- -- 66
2019-06-07 01:00:00 13.6 23 Sudoeste 49 Sudoeste 0 -- -- 43
2019-06-07 00:00:00 13.6 23 Sudoeste 49 Sudoeste 0 -- -- 41
2019-06-06 23:00:00 13.6 22 Sudoeste 46 Sudoeste 0 -- -- 39
2019-06-06 22:00:00 14.1 24 Sudoeste 51 Sudoeste 0 -- -- 37
2019-06-06 21:00:00 15.2 28 Sudoeste 61 Sudoeste 0 -- -- 35
2019-06-06 20:00:00 16.6 28 Sudoeste 56 Sur 0 -- -- 33
2019-06-06 19:00:00 17.5 29 Sur 59 Sur 0 -- -- 34
2019-06-06 18:00:00 17.1 26 Sudoeste 53 Sur 0 -- -- 40
2019-06-06 17:00:00 16.8 32 Sur 57 Sudoeste 0 -- -- 36
2019-06-06 16:00:00 17.8 33 Sur 58 Sudoeste 0 -- -- 36
2019-06-06 15:00:00 16.5 28 Sur 51 Sur 0 -- -- 40
2019-06-06 14:00:00 15.5 25 Sur 45 Sur 0 -- -- 41
2019-06-06 13:00:00 14.6 24 Sur 46 Sur 0 -- -- 52
2019-06-06 12:00:00 12.5 18 Sur 36 Sudeste 0 -- -- 63
2019-06-06 11:00:00 11.5 17 Sur 31 Sur 0 -- -- 62
2019-06-06 10:00:00 9.2 5 Sur 14 Sudeste 0 -- -- 81
2019-06-06 09:00:00 7.4 6 Sudeste 11 Sudeste 0 -- -- 87
2019-06-06 08:00:00 6.3 5 Sur 8 Sur 0 -- -- 92
2019-06-06 07:00:00 6.3 0 Calma 3 Sur 0 -- -- 93
2019-06-06 06:00:00 6.2 0 Calma 3 Sur 0 -- -- 93
2019-06-06 05:00:00 6 0 Calma 5 Sudeste 0 -- -- 93
2019-06-06 04:00:00 6.1 0 Calma 4 Noroeste 0 -- -- 92
2019-06-06 03:00:00 6.3 3 Norte 6 Noroeste 0 -- -- 91
2019-06-06 02:00:00 6.1 2 Sur 6 Noroeste 0 -- -- 91
2019-06-06 01:00:00 6 5 Sudeste 10 Sudeste 0 -- -- 89
2019-06-06 00:00:00 6.8 5 Norte 11 Noroeste 0 -- -- 89
2019-06-05 23:00:00 7.5 4 Oeste 16 Sudeste 0 -- -- 86
2019-06-05 22:00:00 8.2 5 Norte 12 Norte 0 -- -- 83
2019-06-05 21:00:00 8.7 6 Norte 15 Noroeste 0 -- -- 80
2019-06-05 20:00:00 9.3 9 Norte 22 Norte 0 -- -- 75
2019-06-05 19:00:00 9.7 13 Norte 23 Norte 0 -- -- 74
2019-06-05 18:00:00 9.8 13 Norte 33 Noroeste 1.2 -- -- 81
2019-06-05 17:00:00 8.9 24 Norte 45 Norte 0 -- -- 71
2019-06-05 16:00:00 10.7 18 Norte 39 Norte 0.2 -- -- 70
2019-06-05 15:00:00 10.3 13 Noroeste 27 Norte 0 -- -- 75
2019-06-05 14:00:00 9.8 17 Norte 33 Norte 0 -- -- 69
2019-06-05 13:00:00 9.1 19 Norte 35 Norte 0 -- -- 76
2019-06-05 12:00:00 5.4 6 Norte 35 Norte 0.4 -- -- 91
2019-06-05 11:00:00 5.7 22 Norte 40 Noroeste 0 -- -- 86
2019-06-05 10:00:00 6.7 17 Norte 42 Nordeste 0 -- -- 90
2019-06-05 09:00:00 6.4 19 Norte 35 Norte 0.2 -- -- 90
2019-06-05 08:00:00 6.2 17 Norte 43 Norte 2 -- -- 90
2019-06-05 07:00:00 6.9 14 Norte 26 Norte 1 -- -- 91
2019-06-05 06:00:00 8.3 12 Norte 20 Noroeste 0.6 -- -- 92
2019-06-05 05:00:00 8.9 8 Norte 22 Norte 0.2 -- -- 92
2019-06-05 04:00:00 8.7 12 Norte 22 Norte 3 -- -- 93
2019-06-05 03:00:00 9.4 8 Norte 22 Norte 0.4 -- -- 92
2019-06-05 02:00:00 10.2 12 Norte 23 Norte 0 -- -- 90
2019-06-05 01:00:00 10.9 12 Norte 19 Norte 0 -- -- 90
2019-06-05 00:00:00 12 10 Norte 20 Nordeste 0 -- -- 87
2019-06-04 23:00:00 13 10 Nordeste 21 Nordeste 0 -- -- 84
2019-06-04 22:00:00 14.6 12 Norte 26 Norte 0 -- -- 78
2019-06-04 21:00:00 17.3 14 Norte 25 Norte 0 -- -- 59
2019-06-04 20:00:00 21.4 9 Noroeste 23 Sudoeste 0 -- -- 45
2019-06-04 19:00:00 21 10 Sur 26 Sudoeste 0 -- -- 43
2019-06-04 18:00:00 23.8 10 Sudoeste 24 Sudoeste 0 -- -- 43
2019-06-04 17:00:00 23.8 15 Oeste 33 Oeste 0 -- -- 44
2019-06-04 16:00:00 22.8 14 Sudoeste 26 Sudoeste 0 -- -- 46
2019-06-04 15:00:00 24.5 12 Sudoeste 33 Sudoeste 0 -- -- 46
2019-06-04 14:00:00 23.9 21 Sudoeste 40 Sudoeste 0 -- -- 44
2019-06-04 13:00:00 22.8 15 Sur 36 Sur 0 -- -- 44
2019-06-04 12:00:00 21.5 16 Sudoeste 33 Sudoeste 0 -- -- 48
2019-06-04 11:00:00 18.7 13 Sudeste 21 Sur 0 -- -- 50
2019-06-04 10:00:00 17.4 6 Sur 13 Sur 0 -- -- 49
2019-06-04 09:00:00 14.2 0 Calma 7 Norte 0 -- -- 53
2019-06-04 08:00:00 8.5 4 Norte 10 Norte 0 -- -- 75
2019-06-04 07:00:00 7 6 Norte 10 Norte 0 -- -- 76
2019-06-04 06:00:00 7.1 0 Calma 9 Norte 0 -- -- 72
2019-06-04 05:00:00 7.9 5 Norte 9 Norte 0 -- -- 71
2019-06-04 04:00:00 8.2 5 Norte 11 Norte 0 -- -- 67
2019-06-04 03:00:00 8.9 8 Norte 10 Norte 0 -- -- 67
2019-06-04 02:00:00 10.7 6 Norte 10 Norte 0 -- -- 57
2019-06-04 01:00:00 10.9 4 Norte 12 Norte 0 -- -- 55
2019-06-04 00:00:00 11.8 9 Norte 13 Norte 0 -- -- 52
2019-06-03 23:00:00 13.8 8 Norte 12 Norte 0 -- -- 45
2019-06-03 22:00:00 16.1 6 Norte 13 Oeste 0 -- -- 44
2019-06-03 21:00:00 21.8 9 Noroeste 21 Oeste 0 -- -- 28
2019-06-03 20:00:00 25.3 9 Sudoeste 26 Oeste 0 -- -- 24
2019-06-03 19:00:00 26.7 11 Oeste 28 Oeste 0 -- -- 25
2019-06-03 18:00:00 27 18 Oeste 34 Oeste 0 -- -- 22
2019-06-03 17:00:00 27.4 14 Sudoeste 39 Sudoeste 0 -- -- 24
2019-06-03 16:00:00 26.6 15 Sudoeste 46 Sudoeste 0 -- -- 25
2019-06-03 15:00:00 26 20 Sudoeste 48 Sudoeste 0 -- -- 28
2019-06-03 14:00:00 24.8 16 Sudoeste 35 Sudoeste 0 -- -- 35
2019-06-03 13:00:00 23.6 10 Sudoeste 26 Sudoeste 0 -- -- 43
2019-06-03 12:00:00 20 10 Sur 14 Sur 0 -- -- 59
2019-06-03 11:00:00 19.2 5 Sudeste 8 Sudeste 0 -- -- 57
2019-06-03 10:00:00 17.3 2 Sur 5 Sudoeste 0 -- -- 62
2019-06-03 09:00:00 14.5 4 Norte 9 Norte 0 -- -- 76
2019-06-03 08:00:00 12.6 7 Norte 12 Norte 0 -- -- 76
2019-06-03 07:00:00 11.3 9 Norte 12 Norte 0 -- -- 79
2019-06-03 06:00:00 10.8 7 Norte 14 Norte 0 -- -- 81
2019-06-03 05:00:00 11.9 8 Norte 12 Noroeste 0 -- -- 78
2019-06-03 04:00:00 12.5 7 Norte -- -- 0 -- -- 77
2019-06-03 03:00:00 13.2 5 Norte 13 Noroeste 0 -- -- 74
2019-06-03 02:00:00 13.4 9 Norte 13 Noroeste 0 -- -- 74
2019-06-03 01:00:00 13.9 8 Norte 14 Norte 0 -- -- 71
2019-06-03 00:00:00 15.6 9 Norte 15 Norte 0 -- -- 68
2019-06-02 23:00:00 16.5 9 Noroeste 15 Noroeste 0 -- -- 66
2019-06-02 22:00:00 17.9 5 Noroeste 12 Norte 0 -- -- 62
2019-06-02 21:00:00 20.8 8 Norte 16 Noroeste 0 -- -- 53
2019-06-02 20:00:00 22.4 9 Noroeste 18 Nordeste 0 -- -- 46
2019-06-02 19:00:00 24.9 8 Nordeste 22 Este 0 -- -- 38
2019-06-02 18:00:00 25.3 10 Nordeste 23 Nordeste 0 -- -- 39
2019-06-02 17:00:00 25.8 11 Norte 33 Sudoeste 0 -- -- 38
2019-06-02 16:00:00 27.5 14 Sudoeste 27 Sudoeste 0 -- -- 32
2019-06-02 15:00:00 28 15 Sudoeste 32 Sudoeste 0 -- -- 32
2019-06-02 14:00:00 27 15 Oeste 27 Sudoeste 0 -- -- 35
2019-06-02 13:00:00 24.3 13 Sudeste 22 Sudeste 0 -- -- 41
2019-06-02 12:00:00 22.5 7 Sur 18 Sur 0 -- -- 46
2019-06-02 11:00:00 20.6 6 Sudeste 11 Sur 0 -- -- 45
2019-06-02 10:00:00 19.6 4 Sur 9 Sudeste 0 -- -- 50
2019-06-02 09:00:00 17.1 0 Calma 10 Norte 0 -- -- 54
2019-06-02 08:00:00 11.9 9 Norte 12 Norte 0 -- -- 75
2019-06-02 07:00:00 8 6 Norte 12 Norte 0 -- -- 83
2019-06-02 06:00:00 8 6 Norte 10 Norte 0 -- -- 84
2019-06-02 05:00:00 9.4 7 Norte 11 Norte 0 -- -- 76
2019-06-02 04:00:00 9.7 6 Norte 13 Norte 0 -- -- 75
2019-06-02 03:00:00 10.6 8 Norte 15 Noroeste 0 -- -- 72
2019-06-02 02:00:00 11.3 10 Norte 13 Norte 0 -- -- 75
2019-06-02 01:00:00 11.8 9 Norte 12 Norte 0 -- -- 75
2019-06-02 00:00:00 13.3 9 Norte 16 Noroeste 0 -- -- 70
2019-06-01 23:00:00 15 10 Noroeste 17 Noroeste 0 -- -- 66
2019-06-01 22:00:00 17.7 4 Norte 17 Este 0 -- -- 56
2019-06-01 21:00:00 21.5 10 Este 25 Este 0 -- -- 45
2019-06-01 20:00:00 23.3 9 Este 19 Este 0 -- -- 43
2019-06-01 19:00:00 24.2 13 Este 21 Este 0 -- -- 41
2019-06-01 18:00:00 25.2 7 Este 23 Este 0 -- -- 40
2019-06-01 17:00:00 25.3 12 Sudeste 23 Sudeste 0 -- -- 39
2019-06-01 16:00:00 26 5 Sur 23 Sudeste 0 -- -- 32
2019-06-01 15:00:00 25.2 5 Sudeste 19 Sudeste 0 -- -- 33
2019-06-01 14:00:00 24.7 8 Sur 20 Sudeste 0 -- -- 37
2019-06-01 13:00:00 23.4 10 Sur 21 Sudeste 0 -- -- 41
2019-06-01 12:00:00 22.2 9 Sur 18 Sudeste 0 -- -- 43
2019-06-01 11:00:00 20.9 7 Sudeste 13 Sudeste 0 -- -- 44
2019-06-01 10:00:00 19.7 5 Sudeste 10 Sur 0 -- -- 42
2019-06-01 09:00:00 16.5 2 Norte 10 Norte 0 -- -- 49
2019-06-01 08:00:00 11.1 8 Norte 14 Norte 0 -- -- 66
2019-06-01 07:00:00 6.7 8 Norte 11 Norte 0 -- -- 77
2019-06-01 06:00:00 7.4 9 Norte 17 Norte 0 -- -- 74
2019-06-01 05:00:00 7.9 9 Norte 14 Norte 0 -- -- 73
2019-06-01 04:00:00 8.6 8 Norte 14 Norte 0 -- -- 76
2019-06-01 03:00:00 9.4 7 Norte 15 Norte 0 -- -- 73
2019-06-01 02:00:00 10.2 12 Norte 18 Norte 0 -- -- 70
2019-06-01 01:00:00 10.8 8 Norte 14 Noroeste 0 -- -- 68
2019-06-01 00:00:00 11.5 10 Norte 14 Norte 0 -- -- 66
2019-05-31 23:00:00 13.8 4 Norte 11 Norte 0 -- -- 58
2019-05-31 22:00:00 16.6 5 Norte 15 Oeste 0 -- -- 51
2019-05-31 21:00:00 20.1 6 Nordeste 22 Nordeste 0 -- -- 39
2019-05-31 20:00:00 22 12 Este 24 Este 0 -- -- 38
2019-05-31 19:00:00 23.2 12 Este 28 Este 0 -- -- 38
2019-05-31 18:00:00 23.9 14 Este 28 Este 0 -- -- 38
2019-05-31 17:00:00 24.3 14 Este 24 Este 0 -- -- 37
2019-05-31 16:00:00 24.5 10 Este 23 Este 0 -- -- 34
2019-05-31 15:00:00 24.8 6 Sur 19 Sudeste 0 -- -- 34
2019-05-31 14:00:00 23.7 6 Este 14 Nordeste 0 -- -- 29
2019-05-31 13:00:00 23.5 4 Sudeste 16 Este 0 -- -- 28
2019-05-31 12:00:00 21.9 8 Este 15 Sudeste 0 -- -- 32
2019-05-31 11:00:00 20.8 7 Este 15 Nordeste 0 -- -- 36
2019-05-31 10:00:00 20.1 4 Este 15 Norte 0 -- -- 41
2019-05-31 09:00:00 17.8 9 Norte 15 Norte 0 -- -- 48
2019-05-31 08:00:00 13.9 8 Norte 21 Noroeste 0 -- -- 63
2019-05-31 07:00:00 11.1 13 Norte 26 Noroeste 0 -- -- 69
2019-05-31 06:00:00 10.9 10 Norte 15 Norte 0 -- -- 70
2019-05-31 05:00:00 11.7 13 Norte 17 Noroeste 0 -- -- 66
2019-05-31 04:00:00 12.2 12 Norte 19 Noroeste 0 -- -- 64
2019-05-31 03:00:00 11.5 13 Noroeste 21 Noroeste 0 -- -- 70
2019-05-31 02:00:00 11.3 13 Norte 19 Norte 0 -- -- 72
2019-05-31 01:00:00 12.6 14 Norte 28 Noroeste 0 -- -- 68
2019-05-31 00:00:00 13.7 17 Norte 31 Noroeste 0 -- -- 66
2019-05-30 23:00:00 13.5 8 Norte 22 Norte 0 -- -- 62
2019-05-30 22:00:00 14.1 14 Norte 18 Noroeste 0 -- -- 55
2019-05-30 21:00:00 16.9 10 Noroeste 28 Norte 0 -- -- 47
2019-05-30 20:00:00 19.3 18 Norte 30 Norte 0 -- -- 38
2019-05-30 19:00:00 20.7 15 Norte 29 Nordeste 0 -- -- 33
2019-05-30 18:00:00 21.1 15 Norte 33 Norte 0 -- -- 26
2019-05-30 17:00:00 21.5 17 Norte 32 Norte 0 -- -- 31
2019-05-30 16:00:00 21.7 13 Norte 36 Noroeste 0 -- -- 30
2019-05-30 15:00:00 21.1 14 Norte 33 Norte 0 -- -- 36
2019-05-30 14:00:00 20.4 13 Nordeste 28 Nordeste 0 -- -- 32
2019-05-30 13:00:00 19.7 10 Nordeste 26 Norte 0 -- -- 36
2019-05-30 12:00:00 18.5 17 Noroeste 30 Noroeste 0 -- -- 44
2019-05-30 11:00:00 16.8 14 Norte 24 Norte 0 -- -- 45
2019-05-30 10:00:00 15.3 16 Norte 25 Noroeste 0 -- -- 57
2019-05-30 09:00:00 14.4 12 Norte 28 Norte 0 -- -- 56
2019-05-30 08:00:00 11.3 16 Norte 27 Norte 0 -- -- 65
2019-05-30 07:00:00 6.6 3 Nordeste 16 Oeste 0 -- -- 78
2019-05-30 06:00:00 7.8 7 Oeste 31 Norte 0 -- -- 74
2019-05-30 05:00:00 7.7 18 Norte 32 Norte 0 -- -- 75
2019-05-30 04:00:00 7.5 17 Norte 27 Noroeste 0 -- -- 77
2019-05-30 03:00:00 8.2 16 Noroeste 26 Noroeste 0 -- -- 75
2019-05-30 02:00:00 8.7 14 Norte 35 Norte 0 -- -- 73
2019-05-30 01:00:00 8.6 25 Norte 39 Norte 0 -- -- 77
2019-05-30 00:00:00 8 24 Norte 38 Norte 0 -- -- 84
2019-05-29 23:00:00 8.3 23 Norte 36 Norte 0 -- -- 83
2019-05-29 22:00:00 8.9 20 Norte 29 Norte 0 -- -- 81
2019-05-29 21:00:00 9.7 12 Norte 35 Noroeste 0 -- -- 76
2019-05-29 20:00:00 11.2 19 Norte 45 Norte 0 -- -- 70
2019-05-29 19:00:00 11.9 24 Norte 44 Noroeste 0 -- -- 69
2019-05-29 18:00:00 12.6 22 Norte 44 Norte 0 -- -- 67
2019-05-29 17:00:00 11.7 22 Norte 45 Norte 0 -- -- 70
2019-05-29 16:00:00 11.3 22 Norte 46 Norte 0 -- -- 74
2019-05-29 15:00:00 11 27 Norte 44 Norte 0 -- -- 74
2019-05-29 14:00:00 10.2 23 Norte 43 Norte 0 -- -- 74
2019-05-29 13:00:00 9.9 21 Norte 54 Norte 0 -- -- 76
2019-05-29 12:00:00 9.6 36 Norte 59 Norte 0 -- -- 75
2019-05-29 11:00:00 8.7 30 Norte 51 Norte 0 -- -- 79
2019-05-29 10:00:00 7.8 30 Norte 49 Norte 0 -- -- 80
2019-05-29 09:00:00 7.1 28 Norte 46 Norte 0 -- -- 87
2019-05-29 08:00:00 5.7 19 Norte 36 Norte 0 -- -- 88
2019-05-29 07:00:00 5.3 18 Norte 38 Norte 0 -- -- 87
2019-05-29 06:00:00 4.9 20 Norte 37 Norte 0 -- -- 87
2019-05-29 05:00:00 5.1 18 Norte 33 Norte 0 -- -- 85
2019-05-29 04:00:00 5.1 15 Norte 45 Norte 0 -- -- 82
2019-05-29 03:00:00 5.3 27 Norte 47 Norte 0 -- -- 80
2019-05-29 02:00:00 5.3 23 Norte 46 Norte 0 -- -- 79
2019-05-29 01:00:00 4.9 22 Norte 39 Norte 0 -- -- 79
2019-05-29 00:00:00 5.3 23 Norte 44 Norte 0 -- -- 79
2019-05-28 23:00:00 5.5 22 Norte 40 Norte 0 -- -- 78
2019-05-28 22:00:00 6.3 22 Norte 40 Norte 0 -- -- 75
2019-05-28 21:00:00 7.3 21 Norte 39 Norte 0 -- -- 70
2019-05-28 20:00:00 7.9 20 Norte 32 Norte 0 -- -- 71
2019-05-28 19:00:00 8.6 20 Norte 40 Norte 0 -- -- 68
2019-05-28 18:00:00 9.9 31 Norte 57 Norte 0 -- -- 66
2019-05-28 17:00:00 10.1 41 Norte 59 Norte 0 -- -- 64
2019-05-28 16:00:00 11.2 39 Norte 62 Norte 0 -- -- 60
2019-05-28 15:00:00 10.1 35 Norte 63 Norte 0 -- -- 68
2019-05-28 14:00:00 10.5 36 Norte 59 Noroeste 0 -- -- 70
2019-05-28 13:00:00 10.2 31 Norte 54 Norte 0 -- -- 67
2019-05-28 12:00:00 9.8 33 Norte 51 Norte 0 -- -- 67
2019-05-28 11:00:00 8.5 27 Norte 55 Norte 0 -- -- 70
2019-05-28 10:00:00 5.9 29 Norte 64 Noroeste 0 -- -- 77
2019-05-28 09:00:00 6.2 41 Norte 60 Noroeste 0 -- -- 70
2019-05-28 08:00:00 5.2 30 Noroeste 57 Noroeste 0 -- -- 76
2019-05-28 07:00:00 4.6 39 Norte 63 Noroeste 0 -- -- 80
2019-05-28 06:00:00 4.5 33 Norte 55 Norte 0 -- -- 80
2019-05-28 05:00:00 4.9 27 Norte 48 Noroeste 0 -- -- 80
2019-05-28 04:00:00 5 8 Noroeste 32 Norte 0 -- -- 80
2019-05-28 03:00:00 5.2 5 Norte 26 Norte 0 -- -- 78
2019-05-28 02:00:00 6.2 23 Norte 48 Norte 0 -- -- 74
2019-05-28 01:00:00 6.6 19 Norte 37 Norte 0 -- -- 75
2019-05-28 00:00:00 7.7 21 Norte 48 Norte 0 -- -- 79
2019-05-27 23:00:00 8.9 12 Norte 31 Nordeste 0 -- -- 77
2019-05-27 22:00:00 10 23 Norte 42 Norte 0 -- -- 79
2019-05-27 21:00:00 11.2 20 Norte 36 Norte 0 -- -- 74
2019-05-27 20:00:00 12.6 14 Norte 41 Norte 0 -- -- 71
2019-05-27 19:00:00 14.4 27 Norte 45 Noroeste 0 -- -- 63
2019-05-27 18:00:00 13.9 26 Norte 47 Norte 0 -- -- 69
2019-05-27 17:00:00 13.9 31 Norte 50 Norte 0 -- -- 68
2019-05-27 16:00:00 15 33 Norte 49 Norte 0 -- -- 68
2019-05-27 15:00:00 16.5 27 Norte 46 Norte 0 -- -- 55
2019-05-27 14:00:00 15.2 21 Norte 39 Norte 0 -- -- 61
2019-05-27 13:00:00 15.4 17 Norte 31 Norte 0 -- -- 63
2019-05-27 12:00:00 14.8 15 Norte 29 Norte 0 -- -- 67
2019-05-27 11:00:00 12.9 11 Norte 30 Norte 0 -- -- 70
2019-05-27 10:00:00 13 15 Nordeste 31 Norte 0 -- -- 65
2019-05-27 09:00:00 12.3 14 Norte 31 Norte 0 -- -- 62
2019-05-27 08:00:00 11.2 19 Norte 31 Norte 0 -- -- 61
2019-05-27 07:00:00 8.8 14 Noroeste 26 Noroeste 0 -- -- 61
2019-05-27 06:00:00 9.2 19 Noroeste 27 Noroeste 0 -- -- 64
2019-05-27 05:00:00 9.2 20 Norte 29 Norte 0 -- -- 74
2019-05-27 04:00:00 8.6 12 Norte 28 Norte 0 -- -- 81
2019-05-27 03:00:00 8.5 18 Norte 26 Norte 0 -- -- 77
2019-05-27 02:00:00 8.5 13 Noroeste 30 Norte 0 -- -- 76
2019-05-27 01:00:00 9.4 18 Norte 34 Norte 0 -- -- 73
2019-05-27 00:00:00 8.9 18 Norte 30 Norte 0 -- -- 78
2019-05-26 23:00:00 8.6 15 Norte 35 Norte 0 -- -- 82
2019-05-26 22:00:00 8.9 15 Norte 40 Norte 0 -- -- 81
2019-05-26 21:00:00 9.7 23 Norte 37 Norte 0 -- -- 79
2019-05-26 20:00:00 10.5 28 Norte 46 Norte 0 -- -- 77
2019-05-26 19:00:00 10.5 24 Norte 46 Norte 0 -- -- 81
2019-05-26 18:00:00 12.4 21 Norte 44 Norte 0 -- -- 73
2019-05-26 17:00:00 11.9 29 Norte 51 Noroeste 0 -- -- 74
2019-05-26 16:00:00 12.5 35 Norte 53 Norte 0 -- -- 70
2019-05-26 15:00:00 12.3 33 Norte 53 Norte 0 -- -- 68
2019-05-26 14:00:00 11.8 31 Norte 46 Norte 0 -- -- 73
2019-05-26 13:00:00 9.9 25 Norte 47 Norte 0 -- -- 77
2019-05-26 12:00:00 8.8 27 Norte 46 Norte 0 -- -- 78
2019-05-26 11:00:00 8.4 23 Norte 46 Norte 0 -- -- 78
2019-05-26 10:00:00 7.4 19 Norte 41 Norte 0 -- -- 83
2019-05-26 09:00:00 6.6 20 Norte 40 Norte 0 -- -- 85
2019-05-26 08:00:00 6 16 Norte 46 Norte 0 -- -- 88
2019-05-26 07:00:00 5.5 33 Norte 48 Norte 0 -- -- 88
2019-05-26 06:00:00 5.2 27 Norte 46 Norte 0 -- -- 85
2019-05-26 05:00:00 5 31 Norte 60 Norte 0 -- -- 88
2019-05-26 04:00:00 4.7 30 Norte 55 Norte 0 -- -- 85
2019-05-26 03:00:00 5 32 Norte 54 Norte 0 -- -- 83
2019-05-26 02:00:00 5.5 33 Norte 56 Norte 0 -- -- 83
2019-05-26 01:00:00 6.2 30 Norte 55 Norte 0 -- -- 82
2019-05-26 00:00:00 6.7 32 Norte 51 Norte 0 -- -- 83